Time;durP1;ratioP1;P1;durP2;ratioP2;P2;SDS_P1;SDS_P2;PMS_P1;PMS_P2;Temp;Humidity;BMP_temperature;BMP_pressure;BME280_temperature;BME280_humidity;BME280_pressure;Samples;Min_cycle;Max_cycle;Signal;HPM_P1;HPM_P2
2024/04/09 05:02:05;;;;;;;28.30;5.57;;;;;;;;;;6052393;22;20545;-74
2024/04/09 05:04:31;;;;;;;34.27;6.03;;;;;;;;;;5213145;27;20465;-74
2024/04/09 05:06:57;;;;;;;40.43;5.30;;;;;;;;;;5209873;27;20505;-74
2024/04/09 05:09:23;;;;;;;19.57;5.50;;;;;;;;;;5210671;27;20480;-74
2024/04/09 05:11:49;;;;;;;17.40;4.50;;;;;;;;;;5213525;27;20483;-73
2024/04/09 05:14:15;;;;;;;25.63;5.17;;;;;;;;;;5253433;21;20554;-72
2024/04/09 05:16:42;;;;;;;14.53;4.13;;;;;;;;;;5293909;27;20447;-75
2024/04/09 05:19:08;;;;;;;17.60;4.00;;;;;;;;;;5284375;26;20443;-77
2024/04/09 05:21:34;;;;;;;23.63;4.40;;;;;;;;;;5289792;26;21338;-75
2024/04/09 05:24:00;;;;;;;20.67;4.73;;;;;;;;;;5280379;27;20518;-76
2024/04/09 05:26:26;;;;;;;15.47;4.47;;;;;;;;;;5279281;27;20442;-73
2024/04/09 05:28:52;;;;;;;20.73;4.17;;;;;;;;;;5279076;27;20492;-75
2024/04/09 05:31:18;;;;;;;16.10;3.97;;;;;;;;;;5278772;27;21084;-75
2024/04/09 05:33:44;;;;;;;12.63;3.93;;;;;;;;;;5278452;27;20446;-75
2024/04/09 05:36:10;;;;;;;19.73;3.50;;;;;;;;;;5261479;27;20528;-75
2024/04/09 05:38:35;;;;;;;20.07;3.53;;;;;;;;;;5244068;27;20947;-74
2024/04/09 05:41:02;;;;;;;10.47;3.70;;;;;;;;;;5244386;27;20464;-74
2024/04/09 05:43:28;;;;;;;12.67;3.47;;;;;;;;;;5243799;27;20838;-75
2024/04/09 05:45:54;;;;;;;14.17;3.57;;;;;;;;;;5243451;27;20463;-75
2024/04/09 05:48:19;;;;;;;9.60;3.40;;;;;;;;;;5242631;27;20503;-76
2024/04/09 05:50:46;;;;;;;6.37;2.77;;;;;;;;;;5243660;27;20552;-76
2024/04/09 05:53:12;;;;;;;15.97;3.30;;;;;;;;;;5267756;27;21016;-75
2024/04/09 05:55:38;;;;;;;9.50;2.87;;;;;;;;;;5286567;27;20455;-74
2024/04/09 05:58:07;;;;;;;11.00;2.80;;;;;;;;;;5277380;27;20442;-75
2024/04/09 06:00:33;;;;;;;11.07;2.97;;;;;;;;;;5276921;27;20527;-75
2024/04/09 06:02:59;;;;;;;12.93;3.63;;;;;;;;;;5276973;27;20602;-75
2024/04/09 06:05:48;;;;;;;10.80;3.30;;;;;;;;;;5279326;27;20884;-73
2024/04/09 06:08:14;;;;;;;13.73;2.97;;;;;;;;;;5277936;27;21058;-76
2024/04/09 06:10:40;;;;;;;11.30;3.30;;;;;;;;;;5267126;27;21072;-75
2024/04/09 06:13:06;;;;;;;11.87;2.70;;;;;;;;;;5276478;27;20443;-75
2024/04/09 06:15:32;;;;;;;12.80;2.83;;;;;;;;;;5277665;27;20482;-75
2024/04/09 06:17:58;;;;;;;9.63;2.70;;;;;;;;;;5278280;27;20506;-74
2024/04/09 06:20:24;;;;;;;12.10;2.90;;;;;;;;;;5275130;27;20462;-74
2024/04/09 06:22:50;;;;;;;11.10;3.00;;;;;;;;;;5276420;27;20443;-75
2024/04/09 06:25:16;;;;;;;10.33;2.87;;;;;;;;;;5272331;27;20473;-74
2024/04/09 06:27:42;;;;;;;5.40;2.23;;;;;;;;;;5245796;27;21014;-75
2024/04/09 06:30:08;;;;;;;7.63;2.57;;;;;;;;;;5248929;27;20451;-75
2024/04/09 06:32:35;;;;;;;14.60;3.23;;;;;;;;;;5244818;27;20463;-74
2024/04/09 06:35:01;;;;;;;8.43;2.57;;;;;;;;;;5246185;27;20467;-73
2024/04/09 06:37:27;;;;;;;7.50;2.17;;;;;;;;;;5244389;27;20595;-74
2024/04/09 06:39:53;;;;;;;18.10;3.43;;;;;;;;;;5246176;27;20504;-75
2024/04/09 06:42:19;;;;;;;12.93;2.90;;;;;;;;;;5250145;27;20567;-75
2024/04/09 06:44:46;;;;;;;11.40;3.27;;;;;;;;;;5266723;27;20482;-75
2024/04/09 06:47:12;;;;;;;6.77;2.30;;;;;;;;;;5243810;27;20467;-74
2024/04/09 06:49:38;;;;;;;9.23;2.63;;;;;;;;;;5245731;27;20974;-74
2024/04/09 06:52:04;;;;;;;9.07;2.80;;;;;;;;;;5245731;27;20982;-75
2024/04/09 06:54:30;;;;;;;12.37;2.50;;;;;;;;;;5245453;27;20463;-75
2024/04/09 06:56:56;;;;;;;6.67;2.50;;;;;;;;;;5245246;27;20506;-74
2024/04/09 06:59:22;;;;;;;11.73;2.90;;;;;;;;;;5245683;27;20460;-76
2024/04/09 07:01:48;;;;;;;7.13;2.20;;;;;;;;;;5250445;27;20501;-76
2024/04/09 07:04:14;;;;;;;15.73;3.73;;;;;;;;;;5272335;27;20478;-75
2024/04/09 07:06:40;;;;;;;9.43;2.80;;;;;;;;;;5287098;27;20445;-75
2024/04/09 07:09:07;;;;;;;11.27;2.37;;;;;;;;;;5280014;27;20450;-74
2024/04/09 07:11:33;;;;;;;12.00;3.17;;;;;;;;;;5277115;27;20486;-75
2024/04/09 07:13:59;;;;;;;8.67;2.40;;;;;;;;;;5277706;27;20600;-74
2024/04/09 07:16:25;;;;;;;8.47;2.60;;;;;;;;;;5279506;27;20973;-74
2024/04/09 07:18:51;;;;;;;8.97;2.43;;;;;;;;;;5279275;27;20454;-74
2024/04/09 07:21:18;;;;;;;10.67;2.73;;;;;;;;;;5271840;27;20460;-74
2024/04/09 07:23:44;;;;;;;12.50;2.90;;;;;;;;;;5246460;27;20459;-76
2024/04/09 07:26:10;;;;;;;12.27;2.33;;;;;;;;;;5244909;27;20456;-75
2024/04/09 07:28:35;;;;;;;14.70;2.80;;;;;;;;;;5245162;27;20540;-75
2024/04/09 07:31:05;;;;;;;9.37;2.40;;;;;;;;;;5245097;27;20855;-74
2024/04/09 07:33:31;;;;;;;9.43;2.50;;;;;;;;;;5245120;27;20443;-75
2024/04/09 07:35:57;;;;;;;14.10;3.40;;;;;;;;;;5244531;27;21030;-74
2024/04/09 07:38:23;;;;;;;10.13;3.40;;;;;;;;;;5250645;27;20466;-75
2024/04/09 07:40:49;;;;;;;7.10;2.80;;;;;;;;;;5259960;27;20532;-74
2024/04/09 07:43:15;;;;;;;9.40;3.00;;;;;;;;;;5244036;27;20444;-74
2024/04/09 07:45:41;;;;;;;17.00;2.80;;;;;;;;;;5244373;27;20467;-74
2024/04/09 07:48:07;;;;;;;22.20;3.63;;;;;;;;;;5245835;27;20507;-74
2024/04/09 07:50:35;;;;;;;6.60;2.50;;;;;;;;;;5248115;27;20500;-74
2024/04/09 07:53:01;;;;;;;12.13;2.60;;;;;;;;;;5246809;27;20456;-74
2024/04/09 07:55:27;;;;;;;11.40;2.83;;;;;;;;;;5244341;27;20583;-74
2024/04/09 07:57:53;;;;;;;4.40;2.00;;;;;;;;;;5250572;27;20534;-73
2024/04/09 08:00:20;;;;;;;6.43;1.53;;;;;;;;;;5247904;27;20781;-74
2024/04/09 08:02:46;;;;;;;7.87;1.67;;;;;;;;;;5245083;27;20500;-73
2024/04/09 08:05:12;;;;;;;11.00;1.40;;;;;;;;;;5248293;27;20516;-73
2024/04/09 08:07:42;;;;;;;10.07;1.70;;;;;;;;;;5244572;27;20596;-73
2024/04/09 08:10:12;;;;;;;16.20;1.43;;;;;;;;;;5246947;27;20931;-73
2024/04/09 08:12:51;;;;;;;4.00;1.00;;;;;;;;;;5246322;27;20448;-74
2024/04/09 08:15:18;;;;;;;5.37;1.03;;;;;;;;;;5247998;27;20467;-74
2024/04/09 08:17:44;;;;;;;11.43;1.87;;;;;;;;;;5262596;27;20463;-73
2024/04/09 08:20:11;;;;;;;3.07;1.10;;;;;;;;;;5249424;27;20456;-73
2024/04/09 08:22:37;;;;;;;1.37;0.77;;;;;;;;;;5246495;27;20443;-75
2024/04/09 08:25:04;;;;;;;9.53;1.50;;;;;;;;;;5246387;27;20990;-74
2024/04/09 08:27:33;;;;;;;5.03;1.33;;;;;;;;;;5245202;27;20497;-74
2024/04/09 08:29:59;;;;;;;7.30;1.40;;;;;;;;;;5243239;27;21075;-74
2024/04/09 08:32:25;;;;;;;6.70;1.17;;;;;;;;;;5244096;27;20530;-74
2024/04/09 08:34:53;;;;;;;3.03;0.93;;;;;;;;;;5266504;27;20516;-73
2024/04/09 08:37:19;;;;;;;3.57;1.57;;;;;;;;;;5244624;27;20447;-74
2024/04/09 08:39:46;;;;;;;2.30;1.17;;;;;;;;;;5243787;27;20583;-74
2024/04/09 08:42:13;;;;;;;11.03;1.37;;;;;;;;;;5245420;27;20455;-75
2024/04/09 08:44:39;;;;;;;11.40;1.00;;;;;;;;;;5245457;27;21017;-75
2024/04/09 08:47:08;;;;;;;3.30;0.87;;;;;;;;;;5243300;27;20507;-75
2024/04/09 08:49:34;;;;;;;1.63;1.17;;;;;;;;;;5246287;27;20811;-76
2024/04/09 08:52:01;;;;;;;3.77;1.23;;;;;;;;;;5253473;27;20523;-75
2024/04/09 08:54:28;;;;;;;3.70;1.10;;;;;;;;;;5276645;27;20513;-73
2024/04/09 08:56:55;;;;;;;6.00;1.13;;;;;;;;;;5279202;27;20566;-73
2024/04/09 08:59:21;;;;;;;6.93;1.10;;;;;;;;;;5277996;27;20442;-75
2024/04/09 09:01:47;;;;;;;6.40;1.20;;;;;;;;;;5278416;27;20447;-74
2024/04/09 09:04:13;;;;;;;13.43;1.90;;;;;;;;;;5278464;27;20519;-73
2024/04/09 09:06:46;;;;;;;4.43;0.87;;;;;;;;;;5277397;27;20514;-76
2024/04/09 09:09:22;;;;;;;2.93;1.00;;;;;;;;;;5268459;27;20573;-74
2024/04/09 09:11:48;;;;;;;2.10;0.97;;;;;;;;;;5274128;27;20576;-74
2024/04/09 09:14:14;;;;;;;1.87;0.73;;;;;;;;;;5277563;27;20466;-73
2024/04/09 09:16:40;;;;;;;7.97;2.50;;;;;;;;;;5277348;27;20461;-73
2024/04/09 09:19:06;;;;;;;4.40;0.90;;;;;;;;;;5277544;27;20501;-75
2024/04/09 09:21:32;;;;;;;2.73;0.80;;;;;;;;;;5277803;27;20458;-73
2024/04/09 09:23:58;;;;;;;4.10;1.13;;;;;;;;;;5278210;27;20866;-76
2024/04/09 09:26:24;;;;;;;8.37;1.10;;;;;;;;;;5275178;27;20518;-75
2024/04/09 09:29:01;;;;;;;1.40;1.07;;;;;;;;;;5258714;27;20470;-73
2024/04/09 09:31:27;;;;;;;2.63;1.27;;;;;;;;;;5245801;27;20515;-73
2024/04/09 09:33:56;;;;;;;3.37;1.20;;;;;;;;;;5243881;27;20467;-75
2024/04/09 09:36:23;;;;;;;2.50;0.73;;;;;;;;;;5245067;27;20456;-73
2024/04/09 09:38:49;;;;;;;2.87;1.10;;;;;;;;;;5245111;27;20581;-75
2024/04/09 09:41:15;;;;;;;2.40;1.13;;;;;;;;;;5244458;27;20451;-75
2024/04/09 09:43:42;;;;;;;2.80;1.20;;;;;;;;;;5244088;27;20471;-75
2024/04/09 09:46:13;;;;;;;4.63;1.10;;;;;;;;;;5250240;27;21074;-74
2024/04/09 09:48:40;;;;;;;7.60;1.27;;;;;;;;;;5265730;27;20545;-75
2024/04/09 09:51:06;;;;;;;6.10;0.93;;;;;;;;;;5276942;27;20450;-73
2024/04/09 09:53:32;;;;;;;4.50;0.80;;;;;;;;;;5276842;27;20514;-76
2024/04/09 09:56:01;;;;;;;0.90;0.80;;;;;;;;;;5276415;27;20446;-75
2024/04/09 09:58:30;;;;;;;4.57;0.80;;;;;;;;;;5276481;27;20514;-73
2024/04/09 10:00:58;;;;;;;2.87;0.80;;;;;;;;;;5276653;27;20605;-73
2024/04/09 10:03:25;;;;;;;7.43;1.20;;;;;;;;;;5274704;27;20798;-75
2024/04/09 10:05:52;;;;;;;9.60;1.10;;;;;;;;;;5258985;27;20462;-74
2024/04/09 10:08:18;;;;;;;8.93;1.20;;;;;;;;;;5262579;27;20440;-74
2024/04/09 10:10:44;;;;;;;0.97;0.87;;;;;;;;;;5246162;27;20460;-74
2024/04/09 10:13:10;;;;;;;2.60;1.60;;;;;;;;;;5246345;27;20915;-74
2024/04/09 10:15:43;;;;;;;2.80;1.30;;;;;;;;;;5244479;27;20475;-74
2024/04/09 10:18:09;;;;;;;4.33;1.00;;;;;;;;;;5246222;27;20940;-74
2024/04/09 10:20:36;;;;;;;2.17;0.93;;;;;;;;;;5246093;27;20577;-73
2024/04/09 10:23:03;;;;;;;2.30;0.90;;;;;;;;;;5253248;27;20545;-75
2024/04/09 10:25:36;;;;;;;2.73;1.00;;;;;;;;;;5263919;27;20607;-75
2024/04/09 10:28:03;;;;;;;3.83;1.00;;;;;;;;;;5246248;27;20525;-75
2024/04/09 10:30:31;;;;;;;5.10;0.90;;;;;;;;;;5246551;27;20847;-75
2024/04/09 10:32:58;;;;;;;2.30;0.80;;;;;;;;;;5246458;27;20463;-73
2024/04/09 10:35:24;;;;;;;0.80;0.70;;;;;;;;;;5245642;27;20464;-73
2024/04/09 10:37:56;;;;;;;0.77;0.73;;;;;;;;;;5245979;27;21007;-75
2024/04/09 10:40:22;;;;;;;1.43;0.80;;;;;;;;;;5244375;27;20807;-75
2024/04/09 10:42:48;;;;;;;0.97;0.87;;;;;;;;;;5255047;27;20475;-73
2024/04/09 10:45:15;;;;;;;2.93;0.70;;;;;;;;;;5297979;27;20462;-77
2024/04/09 10:47:41;;;;;;;1.13;1.03;;;;;;;;;;5285522;26;20464;-72
2024/04/09 10:50:08;;;;;;;2.77;0.80;;;;;;;;;;5268125;26;20427;-73
2024/04/09 10:52:34;;;;;;;1.33;1.07;;;;;;;;;;5263329;27;20455;-74
2024/04/09 10:55:07;;;;;;;1.73;0.83;;;;;;;;;;5263033;27;20479;-73
2024/04/09 10:57:33;;;;;;;2.07;1.00;;;;;;;;;;5258274;27;20885;-75
2024/04/09 11:00:08;;;;;;;1.60;1.10;;;;;;;;;;5249481;27;20524;-76
2024/04/09 11:02:34;;;;;;;2.47;1.17;;;;;;;;;;5250544;27;20451;-74
2024/04/09 11:05:00;;;;;;;1.27;0.93;;;;;;;;;;5249490;27;20532;-74
2024/04/09 11:07:26;;;;;;;7.53;1.03;;;;;;;;;;5252912;27;20451;-73
2024/04/09 11:09:52;;;;;;;1.30;0.80;;;;;;;;;;5258678;27;20459;-74
2024/04/09 11:12:18;;;;;;;2.60;1.10;;;;;;;;;;5257406;27;20517;-75
2024/04/09 11:14:44;;;;;;;1.90;1.23;;;;;;;;;;5383665;21;20838;-77
2024/04/09 11:17:17;;;;;;;3.60;0.90;;;;;;;;;;5309883;26;20529;-78
2024/04/09 11:19:43;;;;;;;1.50;1.20;;;;;;;;;;5293990;26;20544;-77
2024/04/09 11:22:11;;;;;;;4.00;2.27;;;;;;;;;;5312730;26;20441;-77
2024/04/09 11:24:37;;;;;;;5.13;1.30;;;;;;;;;;5288474;26;20470;-77
2024/04/09 11:27:06;;;;;;;2.13;1.20;;;;;;;;;;5276528;27;20534;-76
2024/04/09 11:29:32;;;;;;;2.53;1.43;;;;;;;;;;5288281;27;20795;-77
2024/04/09 11:32:04;;;;;;;3.70;1.13;;;;;;;;;;5310853;27;20979;-77
2024/04/09 11:34:30;;;;;;;5.63;1.77;;;;;;;;;;5295393;27;21021;-77
2024/04/09 11:36:58;;;;;;;5.87;1.30;;;;;;;;;;5277769;27;21000;-77
2024/04/09 11:39:24;;;;;;;3.00;0.90;;;;;;;;;;5278206;27;20500;-77
2024/04/09 11:41:50;;;;;;;9.67;1.37;;;;;;;;;;5278247;27;20450;-76
2024/04/09 11:44:20;;;;;;;3.73;1.50;;;;;;;;;;5276360;27;20913;-77
2024/04/09 11:46:46;;;;;;;1.03;0.97;;;;;;;;;;5278011;27;20438;-76
2024/04/09 11:49:12;;;;;;;5.60;1.10;;;;;;;;;;5278392;27;20779;-76
2024/04/09 11:51:41;;;;;;;2.10;1.17;;;;;;;;;;5276656;27;20454;-76
2024/04/09 11:54:07;;;;;;;2.00;1.00;;;;;;;;;;5277845;27;20812;-76
2024/04/09 11:56:35;;;;;;;3.00;1.10;;;;;;;;;;5277777;27;20451;-76
2024/04/09 11:59:02;;;;;;;3.60;1.27;;;;;;;;;;5279147;27;20462;-77
2024/04/09 12:01:28;;;;;;;1.83;0.83;;;;;;;;;;5284383;27;20529;-76
2024/04/09 12:03:54;;;;;;;2.70;1.13;;;;;;;;;;5283697;27;20446;-76
2024/04/09 12:06:21;;;;;;;1.10;0.90;;;;;;;;;;5284692;27;20505;-78
2024/04/09 12:08:47;;;;;;;1.57;0.90;;;;;;;;;;5284982;27;20442;-77
2024/04/09 12:11:12;;;;;;;1.50;1.10;;;;;;;;;;5280459;27;20880;-78
2024/04/09 12:13:39;;;;;;;3.80;1.00;;;;;;;;;;5278725;27;20498;-77
2024/04/09 12:16:05;;;;;;;2.00;0.90;;;;;;;;;;5276446;27;20842;-78
2024/04/09 12:18:31;;;;;;;6.57;1.23;;;;;;;;;;5278677;27;20499;-78
2024/04/09 12:20:58;;;;;;;2.37;1.10;;;;;;;;;;5278539;27;20506;-78
2024/04/09 12:23:24;;;;;;;0.87;0.80;;;;;;;;;;5278600;27;20514;-77
2024/04/09 12:25:50;;;;;;;4.90;1.10;;;;;;;;;;5278224;27;20542;-77
2024/04/09 12:28:16;;;;;;;1.27;0.90;;;;;;;;;;5277763;27;20569;-77
2024/04/09 12:30:42;;;;;;;1.90;0.90;;;;;;;;;;5277999;27;20575;-77
2024/04/09 12:33:09;;;;;;;3.17;1.00;;;;;;;;;;5278256;27;20458;-77
2024/04/09 12:35:35;;;;;;;0.90;0.80;;;;;;;;;;5278136;27;20531;-79
2024/04/09 12:38:01;;;;;;;1.20;1.00;;;;;;;;;;5278626;27;20450;-79
2024/04/09 12:40:27;;;;;;;0.80;0.70;;;;;;;;;;5277813;27;20455;-79
2024/04/09 12:42:54;;;;;;;0.93;0.90;;;;;;;;;;5277970;27;21022;-78
2024/04/09 12:45:20;;;;;;;5.50;2.47;;;;;;;;;;5277896;27;20470;-77
2024/04/09 12:47:46;;;;;;;1.37;1.10;;;;;;;;;;5282520;27;20547;-77
2024/04/09 12:50:13;;;;;;;0.93;0.80;;;;;;;;;;5282600;27;20525;-78
2024/04/09 12:52:40;;;;;;;2.70;0.90;;;;;;;;;;5284612;27;20547;-77
2024/04/09 12:55:10;;;;;;;5.90;1.00;;;;;;;;;;5282960;27;21041;-76
2024/04/09 12:57:36;;;;;;;1.20;0.70;;;;;;;;;;5280061;27;20454;-78
2024/04/09 13:00:07;;;;;;;1.00;0.80;;;;;;;;;;5277803;27;20510;-78
2024/04/09 13:02:33;;;;;;;1.30;1.00;;;;;;;;;;5276187;27;20533;-78
2024/04/09 13:04:59;;;;;;;1.20;1.10;;;;;;;;;;5280675;26;21080;-77
2024/04/09 13:07:25;;;;;;;8.80;0.93;;;;;;;;;;5340823;26;20451;-77
2024/04/09 13:09:52;;;;;;;1.00;0.90;;;;;;;;;;5310897;26;20464;-76
2024/04/09 13:12:18;;;;;;;0.93;0.90;;;;;;;;;;5309860;26;20534;-79
2024/04/09 13:14:44;;;;;;;0.93;0.73;;;;;;;;;;5304880;26;20485;-76
2024/04/09 13:17:10;;;;;;;1.40;0.90;;;;;;;;;;5300669;26;20472;-79
2024/04/09 13:19:36;;;;;;;1.60;0.90;;;;;;;;;;5307363;26;20517;-76
2024/04/09 13:22:02;;;;;;;3.90;1.10;;;;;;;;;;5311247;26;20509;-77
2024/04/09 13:24:29;;;;;;;6.33;0.90;;;;;;;;;;5305602;26;20469;-75
2024/04/09 13:26:55;;;;;;;2.67;0.93;;;;;;;;;;5301872;27;20551;-76
2024/04/09 13:29:21;;;;;;;7.00;1.03;;;;;;;;;;5311206;26;20445;-76
2024/04/09 13:31:47;;;;;;;1.70;0.80;;;;;;;;;;5310863;27;20528;-76
2024/04/09 13:34:13;;;;;;;2.30;0.80;;;;;;;;;;5310998;26;20514;-76
2024/04/09 13:36:39;;;;;;;3.40;0.93;;;;;;;;;;5308344;27;20460;-72
2024/04/09 13:39:07;;;;;;;6.73;0.90;;;;;;;;;;5296998;26;20563;-73
2024/04/09 13:41:33;;;;;;;0.60;0.60;;;;;;;;;;5292736;26;20488;-71
2024/04/09 13:43:59;;;;;;;3.90;1.10;;;;;;;;;;5288304;26;21020;-72
2024/04/09 13:46:25;;;;;;;1.93;0.90;;;;;;;;;;5299677;26;20817;-71
2024/04/09 13:48:52;;;;;;;6.20;1.30;;;;;;;;;;5287786;27;20481;-71
2024/04/09 13:51:19;;;;;;;1.67;0.90;;;;;;;;;;5308085;26;20498;-72
2024/04/09 13:53:44;;;;;;;1.00;0.90;;;;;;;;;;5309226;26;20520;-71
2024/04/09 13:56:11;;;;;;;1.43;0.87;;;;;;;;;;5310423;27;20473;-72
2024/04/09 13:58:37;;;;;;;1.57;0.80;;;;;;;;;;5310361;26;20464;-73
2024/04/09 14:01:03;;;;;;;3.57;0.83;;;;;;;;;;5337541;26;20505;-72
2024/04/09 14:03:29;;;;;;;2.80;1.47;;;;;;;;;;5310403;26;20449;-72
2024/04/09 14:05:55;;;;;;;1.47;1.00;;;;;;;;;;5309444;26;20524;-72
2024/04/09 14:08:21;;;;;;;2.53;1.00;;;;;;;;;;5308349;26;20448;-73
2024/04/09 14:10:47;;;;;;;7.73;1.50;;;;;;;;;;5309339;26;20903;-72
2024/04/09 14:13:13;;;;;;;2.20;1.00;;;;;;;;;;5309772;26;20833;-73
2024/04/09 14:15:39;;;;;;;1.80;0.73;;;;;;;;;;5309599;26;20529;-78
2024/04/09 14:18:08;;;;;;;2.10;0.97;;;;;;;;;;5310579;26;20579;-77
2024/04/09 14:20:34;;;;;;;1.77;1.17;;;;;;;;;;5299256;26;20486;-72
2024/04/09 14:23:00;;;;;;;3.33;1.00;;;;;;;;;;5308207;26;20527;-73
2024/04/09 14:25:26;;;;;;;3.33;1.03;;;;;;;;;;5308543;26;20473;-72
2024/04/09 14:27:52;;;;;;;1.10;0.93;;;;;;;;;;5303625;27;20525;-73
2024/04/09 14:30:18;;;;;;;1.30;1.10;;;;;;;;;;5279077;27;20967;-74
2024/04/09 14:32:44;;;;;;;13.53;1.40;;;;;;;;;;5310504;27;20934;-74
2024/04/09 14:35:11;;;;;;;1.43;1.00;;;;;;;;;;5310660;26;20461;-73
2024/04/09 14:37:37;;;;;;;1.20;0.83;;;;;;;;;;5298287;26;20461;-75
2024/04/09 14:40:04;;;;;;;1.83;1.00;;;;;;;;;;5292461;27;20527;-73
2024/04/09 14:42:30;;;;;;;1.37;1.00;;;;;;;;;;5310856;26;20476;-74
2024/04/09 14:44:56;;;;;;;0.90;0.80;;;;;;;;;;5310024;26;20525;-72
2024/04/09 14:47:22;;;;;;;1.70;1.27;;;;;;;;;;5310928;26;20853;-72
2024/04/09 14:49:48;;;;;;;3.57;1.30;;;;;;;;;;5310664;26;20452;-73
2024/04/09 14:52:14;;;;;;;2.43;1.27;;;;;;;;;;5311500;26;20448;-74
2024/04/09 14:54:41;;;;;;;2.30;1.17;;;;;;;;;;5313123;26;21015;-74
2024/04/09 14:57:07;;;;;;;1.77;1.00;;;;;;;;;;5313022;26;20505;-73
2024/04/09 14:59:34;;;;;;;3.63;1.20;;;;;;;;;;5313095;26;20464;-73
2024/04/09 15:02:01;;;;;;;4.10;1.20;;;;;;;;;;5303567;26;20512;-72
2024/04/09 15:04:27;;;;;;;3.30;1.07;;;;;;;;;;5315624;26;20548;-75
2024/04/09 15:06:53;;;;;;;1.50;1.00;;;;;;;;;;5314163;26;20884;-75
2024/04/09 15:09:22;;;;;;;8.43;2.20;;;;;;;;;;5314229;26;20437;-74
2024/04/09 15:11:50;;;;;;;2.10;1.10;;;;;;;;;;5312522;26;20440;-74
2024/04/09 15:14:16;;;;;;;5.93;1.33;;;;;;;;;;5280017;27;20482;-75
2024/04/09 15:16:42;;;;;;;1.90;1.00;;;;;;;;;;5313618;26;20536;-75
2024/04/09 15:19:08;;;;;;;2.70;1.20;;;;;;;;;;5323775;26;20448;-76
2024/04/09 15:21:34;;;;;;;1.10;1.00;;;;;;;;;;5328067;26;20445;-74
2024/04/09 15:24:00;;;;;;;5.50;1.13;;;;;;;;;;5297177;26;20522;-74
2024/04/09 15:26:26;;;;;;;3.63;0.90;;;;;;;;;;5290409;27;20968;-72
2024/04/09 15:28:52;;;;;;;6.40;1.10;;;;;;;;;;5295274;27;20430;-73
2024/04/09 15:31:18;;;;;;;5.30;1.10;;;;;;;;;;5297191;26;20235;-73
2024/04/09 15:33:44;;;;;;;1.43;0.93;;;;;;;;;;5294464;27;20525;-72
2024/04/09 15:36:11;;;;;;;1.87;0.90;;;;;;;;;;5294440;27;20459;-73
2024/04/09 15:38:37;;;;;;;1.83;1.33;;;;;;;;;;5309627;27;20565;-73
2024/04/09 15:41:03;;;;;;;1.23;1.00;;;;;;;;;;5313452;26;20576;-73
2024/04/09 15:43:30;;;;;;;2.30;1.10;;;;;;;;;;5316272;26;20639;-73
2024/04/09 15:45:56;;;;;;;3.40;1.00;;;;;;;;;;5294528;27;20506;-73
2024/04/09 15:48:24;;;;;;;2.07;1.10;;;;;;;;;;5318858;27;20452;-73
2024/04/09 15:50:50;;;;;;;1.67;1.20;;;;;;;;;;5309386;26;20473;-73
2024/04/09 15:53:16;;;;;;;1.47;1.00;;;;;;;;;;5312397;26;20509;-74
2024/04/09 15:55:42;;;;;;;5.37;1.57;;;;;;;;;;5314697;26;20588;-72
2024/04/09 15:58:08;;;;;;;2.00;1.40;;;;;;;;;;5315050;26;20508;-74
2024/04/09 16:00:35;;;;;;;2.00;1.10;;;;;;;;;;5311331;26;21027;-71
2024/04/09 16:03:01;;;;;;;1.77;1.30;;;;;;;;;;5315137;26;20509;-72
2024/04/09 16:05:27;;;;;;;2.33;1.20;;;;;;;;;;5315550;26;20460;-72
2024/04/09 16:07:53;;;;;;;3.07;1.40;;;;;;;;;;5312625;27;20491;-73
2024/04/09 16:10:19;;;;;;;2.10;1.60;;;;;;;;;;5314352;27;20497;-73
2024/04/09 16:12:45;;;;;;;5.87;1.30;;;;;;;;;;5313183;26;20491;-73
2024/04/09 16:15:11;;;;;;;1.67;1.10;;;;;;;;;;5309679;26;20464;-74
2024/04/09 16:17:37;;;;;;;1.47;1.20;;;;;;;;;;5312127;26;20501;-74
2024/04/09 16:20:04;;;;;;;2.20;1.10;;;;;;;;;;5312139;27;20464;-73
2024/04/09 16:22:30;;;;;;;5.73;1.60;;;;;;;;;;5283592;26;20511;-74
2024/04/09 16:24:56;;;;;;;6.23;1.77;;;;;;;;;;5277901;27;20474;-73
2024/04/09 16:27:22;;;;;;;3.73;1.87;;;;;;;;;;5285223;26;20802;-73
2024/04/09 16:29:49;;;;;;;1.30;1.10;;;;;;;;;;5311225;26;20468;-73
2024/04/09 16:32:15;;;;;;;3.30;1.10;;;;;;;;;;5314028;26;20865;-77
2024/04/09 16:34:41;;;;;;;1.93;1.23;;;;;;;;;;5314726;26;20868;-78
2024/04/09 16:37:07;;;;;;;2.60;1.23;;;;;;;;;;5308574;26;20464;-77
2024/04/09 16:39:34;;;;;;;2.50;1.50;;;;;;;;;;5281874;26;20462;-80
2024/04/09 16:42:00;;;;;;;2.00;1.20;;;;;;;;;;5276850;27;20458;-79
2024/04/09 16:44:26;;;;;;;1.47;1.20;;;;;;;;;;5279052;27;20832;-79
2024/04/09 16:46:52;;;;;;;2.13;1.63;;;;;;;;;;5285237;27;20560;-79
2024/04/09 16:49:19;;;;;;;1.33;1.23;;;;;;;;;;5306032;26;20477;-78
2024/04/09 16:51:45;;;;;;;6.13;1.23;;;;;;;;;;5306382;26;20462;-79
2024/04/09 16:54:11;;;;;;;2.73;1.40;;;;;;;;;;5278362;27;20603;-79
2024/04/09 16:56:37;;;;;;;2.80;1.40;;;;;;;;;;5277219;27;20929;-78
2024/04/09 16:59:03;;;;;;;8.57;2.50;;;;;;;;;;5276692;27;20458;-78
2024/04/09 17:01:29;;;;;;;4.87;2.50;;;;;;;;;;5277042;27;20450;-78
2024/04/09 17:04:01;;;;;;;4.90;2.37;;;;;;;;;;5276397;27;20498;-78
2024/04/09 17:06:27;;;;;;;4.67;2.40;;;;;;;;;;5277567;27;20450;-77
2024/04/09 17:08:53;;;;;;;3.70;2.80;;;;;;;;;;5277929;27;20510;-78
2024/04/09 17:11:19;;;;;;;6.70;1.70;;;;;;;;;;5277493;26;20540;-78
2024/04/09 17:13:46;;;;;;;3.73;1.80;;;;;;;;;;5304376;27;20466;-78
2024/04/09 17:16:13;;;;;;;2.07;1.37;;;;;;;;;;5302012;27;20477;-77
2024/04/09 17:18:40;;;;;;;2.70;1.40;;;;;;;;;;5316709;26;21074;-78
2024/04/09 17:21:12;;;;;;;2.90;1.50;;;;;;;;;;5319746;26;20545;-79
2024/04/09 17:23:38;;;;;;;5.43;1.70;;;;;;;;;;5316860;27;21038;-78
2024/04/09 17:26:05;;;;;;;3.30;1.40;;;;;;;;;;5313041;26;20532;-80
2024/04/09 17:28:31;;;;;;;4.10;1.53;;;;;;;;;;5321758;26;20456;-79
2024/04/09 17:30:57;;;;;;;4.90;1.30;;;;;;;;;;5318495;26;20517;-79
2024/04/09 17:33:24;;;;;;;5.40;1.87;;;;;;;;;;5315495;27;20448;-77
2024/04/09 17:35:50;;;;;;;7.00;1.60;;;;;;;;;;5315068;26;20588;-78
2024/04/09 17:38:16;;;;;;;7.87;1.60;;;;;;;;;;5312420;27;20841;-77
2024/04/09 17:40:42;;;;;;;4.90;1.60;;;;;;;;;;5318295;26;20461;-79
2024/04/09 17:43:09;;;;;;;2.83;1.40;;;;;;;;;;5322867;26;20523;-79
2024/04/09 17:45:42;;;;;;;9.33;2.60;;;;;;;;;;5318993;26;20536;-78
2024/04/09 17:48:08;;;;;;;7.27;2.93;;;;;;;;;;5316220;26;20480;-78
2024/04/09 17:50:34;;;;;;;6.57;3.07;;;;;;;;;;5316358;27;20464;-78
2024/04/09 17:53:01;;;;;;;8.53;3.00;;;;;;;;;;5318706;26;20461;-78
2024/04/09 17:55:27;;;;;;;3.00;2.10;;;;;;;;;;5321911;26;20525;-78
2024/04/09 17:57:54;;;;;;;5.50;2.30;;;;;;;;;;5312592;27;20804;-77
2024/04/09 18:00:22;;;;;;;4.70;2.50;;;;;;;;;;5314471;26;20513;-78
2024/04/09 18:02:50;;;;;;;5.73;1.53;;;;;;;;;;5315251;26;20548;-79
2024/04/09 18:05:16;;;;;;;6.43;1.70;;;;;;;;;;5313807;26;20513;-78
2024/04/09 18:07:42;;;;;;;2.57;1.37;;;;;;;;;;5308325;26;20464;-78
2024/04/09 18:10:09;;;;;;;2.10;1.53;;;;;;;;;;5313865;26;20926;-78
2024/04/09 18:12:36;;;;;;;5.50;2.30;;;;;;;;;;5317809;26;20503;-78
2024/04/09 18:15:02;;;;;;;5.80;2.00;;;;;;;;;;5315405;26;20541;-78
2024/04/09 18:17:28;;;;;;;4.70;2.00;;;;;;;;;;5311001;26;20864;-77
2024/04/09 18:19:54;;;;;;;3.00;2.00;;;;;;;;;;5310762;26;20509;-76
2024/04/09 18:22:21;;;;;;;5.93;1.93;;;;;;;;;;5305106;26;20521;-77
2024/04/09 18:24:47;;;;;;;4.73;2.00;;;;;;;;;;5305913;26;20550;-76
2024/04/09 18:27:13;;;;;;;5.30;2.33;;;;;;;;;;5314634;27;20476;-76
2024/04/09 18:29:40;;;;;;;5.00;1.80;;;;;;;;;;5319925;27;20814;-77
2024/04/09 18:32:06;;;;;;;3.30;2.00;;;;;;;;;;5317543;27;20504;-77
2024/04/09 18:34:32;;;;;;;3.17;1.77;;;;;;;;;;5322378;26;21020;-77
2024/04/09 18:36:58;;;;;;;2.70;1.57;;;;;;;;;;5320523;26;20445;-78
2024/04/09 18:39:24;;;;;;;2.10;1.60;;;;;;;;;;5318001;26;20460;-79
2024/04/09 18:41:50;;;;;;;3.73;1.60;;;;;;;;;;5284206;27;20980;-78
2024/04/09 18:44:19;;;;;;;1.43;1.23;;;;;;;;;;5283771;27;20466;-77
2024/04/09 18:46:46;;;;;;;1.80;1.20;;;;;;;;;;5305718;26;20516;-79
2024/04/09 18:49:12;;;;;;;5.40;2.40;;;;;;;;;;5317014;26;20567;-78
2024/04/09 18:51:40;;;;;;;7.53;3.50;;;;;;;;;;5320938;26;20453;-78
2024/04/09 18:54:06;;;;;;;2.70;1.90;;;;;;;;;;5315410;26;20881;-78
2024/04/09 18:56:34;;;;;;;3.23;1.63;;;;;;;;;;5313590;26;20536;-77
2024/04/09 18:59:01;;;;;;;3.07;1.60;;;;;;;;;;5344263;26;20504;-78
2024/04/09 19:01:27;;;;;;;3.47;1.77;;;;;;;;;;5317210;26;20486;-78
2024/04/09 19:03:53;;;;;;;2.30;1.77;;;;;;;;;;5311597;26;20879;-77
2024/04/09 19:06:20;;;;;;;9.30;1.37;;;;;;;;;;5298015;26;21118;-75
2024/04/09 19:08:48;;;;;;;9.40;2.20;;;;;;;;;;5294735;26;20881;-75
2024/04/09 19:11:14;;;;;;;4.20;2.10;;;;;;;;;;5313878;26;20579;-74
2024/04/09 19:13:40;;;;;;;6.10;2.63;;;;;;;;;;5314589;26;20453;-76
2024/04/09 19:16:07;;;;;;;4.87;2.80;;;;;;;;;;5308145;26;20531;-75
2024/04/09 19:18:35;;;;;;;4.50;2.17;;;;;;;;;;5317723;27;20520;-74
2024/04/09 19:21:08;;;;;;;2.13;1.60;;;;;;;;;;5321291;26;21132;-76
2024/04/09 19:23:34;;;;;;;2.33;1.50;;;;;;;;;;5319126;26;20444;-74
2024/04/09 19:26:01;;;;;;;4.67;1.70;;;;;;;;;;5315875;26;20980;-73
2024/04/09 19:28:27;;;;;;;2.00;1.53;;;;;;;;;;5314050;26;20473;-75
2024/04/09 19:30:53;;;;;;;5.60;1.80;;;;;;;;;;5313099;26;20453;-76
2024/04/09 19:33:19;;;;;;;3.47;1.57;;;;;;;;;;5314690;26;20499;-76
2024/04/09 19:35:45;;;;;;;2.13;1.77;;;;;;;;;;5317915;26;20465;-77
2024/04/09 19:38:13;;;;;;;1.63;1.33;;;;;;;;;;5315372;27;20465;-77